createdAt,value
2022-08-04T00:02:48.134Z,18.70
2022-08-04T00:07:56.777Z,18.70
2022-08-04T00:13:04.660Z,18.70
2022-08-04T00:18:12.992Z,18.60
2022-08-04T00:23:19.448Z,18.60
2022-08-04T00:28:26.101Z,18.50
2022-08-04T00:33:32.049Z,18.50
2022-08-04T00:38:39.482Z,18.50
2022-08-04T00:43:53.469Z,18.50
2022-08-04T00:49:04.569Z,18.40
2022-08-04T00:54:27.855Z,18.40
2022-08-04T01:00:06.029Z,18.30
2022-08-04T01:05:20.045Z,18.30
2022-08-04T01:10:49.936Z,18.20
2022-08-04T01:16:07.956Z,18.10
2022-08-04T01:21:46.766Z,18.00
2022-08-04T01:27:07.136Z,17.90
2022-08-04T01:32:27.742Z,17.90
2022-08-04T01:37:50.969Z,17.80
2022-08-04T01:42:58.669Z,17.80
2022-08-04T01:48:05.331Z,17.70
2022-08-04T01:53:10.982Z,17.60
2022-08-04T01:58:19.351Z,17.60
2022-08-04T02:04:20.674Z,17.50
2022-08-04T02:08:46.779Z,17.50
2022-08-04T02:14:21.014Z,17.40
2022-08-04T02:19:35.583Z,17.40
2022-08-04T02:24:49.971Z,17.30
2022-08-04T02:29:58.363Z,17.20
2022-08-04T02:35:16.012Z,17.20
2022-08-04T02:40:22.858Z,17.10
2022-08-04T02:45:30.778Z,17.10
2022-08-04T02:50:38.132Z,17.10
2022-08-04T02:55:50.928Z,17.10
2022-08-04T03:00:53.034Z,17.10
2022-08-04T03:06:13.701Z,17.10
2022-08-04T03:11:28.133Z,17.00
2022-08-04T03:16:54.281Z,17.00
2022-08-04T03:22:08.201Z,17.00
2022-08-04T03:27:37.673Z,17.00
2022-08-04T03:32:51.874Z,16.90
2022-08-04T03:38:09.364Z,16.90
2022-08-04T03:43:57.921Z,16.90
2022-08-04T03:48:56.124Z,16.80
2022-08-04T03:54:04.545Z,16.80
2022-08-04T03:59:13.271Z,16.80
2022-08-04T04:04:36.399Z,16.90
2022-08-04T04:10:07.237Z,16.90
2022-08-04T04:15:28.278Z,17.00
2022-08-04T04:21:00.660Z,17.00
2022-08-04T04:26:28.644Z,17.20
2022-08-04T04:31:37.546Z,17.40
2022-08-04T04:37:01.330Z,17.60
2022-08-04T04:42:30.284Z,17.70
2022-08-04T04:48:09.416Z,17.90
2022-08-04T04:53:06.608Z,18.10
2022-08-04T04:58:14.999Z,18.20
2022-08-04T05:03:44.310Z,18.50
2022-08-04T05:08:58.599Z,18.70
2022-08-04T05:14:36.880Z,18.90
2022-08-04T05:19:28.742Z,19.10
2022-08-04T05:24:38.232Z,19.40
2022-08-04T05:29:49.232Z,19.60
2022-08-04T05:35:03.295Z,19.90
2022-08-04T05:40:11.245Z,20.20
2022-08-04T05:45:16.790Z,20.50
2022-08-04T05:50:24.135Z,20.70
2022-08-04T05:55:48.939Z,20.90
2022-08-04T06:00:41.610Z,21.10
2022-08-04T06:05:49.066Z,21.40
2022-08-04T06:10:57.389Z,21.70
2022-08-04T06:16:05.613Z,22.00
2022-08-04T06:21:16.017Z,22.30
2022-08-04T06:26:20.531Z,22.60
2022-08-04T06:32:28.052Z,22.90
2022-08-04T06:36:44.175Z,23.20
2022-08-04T06:42:14.934Z,23.40
2022-08-04T06:47:00.635Z,23.70
2022-08-04T06:52:08.396Z,24.00
2022-08-04T06:57:16.575Z,24.20
2022-08-04T07:02:24.895Z,24.60
2022-08-04T07:07:36.689Z,25.00
2022-08-04T07:12:39.397Z,25.50
2022-08-04T07:17:45.933Z,25.80
2022-08-04T07:22:53.290Z,26.20
2022-08-04T07:27:59.022Z,26.60
2022-08-04T07:33:04.590Z,27.00
2022-08-04T07:38:11.645Z,27.40
2022-08-04T07:43:18.875Z,27.70
2022-08-04T07:48:24.841Z,28.10
2022-08-04T07:53:54.822Z,28.50
2022-08-04T07:58:38.514Z,28.80
2022-08-04T08:03:44.758Z,29.20
2022-08-04T08:08:50.311Z,29.60
2022-08-04T08:13:56.354Z,29.90
2022-08-04T08:19:03.823Z,30.40
2022-08-04T08:24:12.861Z,30.50
2022-08-04T08:29:19.400Z,30.70
2022-08-04T08:34:28.177Z,31.20
2022-08-04T08:39:49.978Z,31.30
2022-08-04T08:45:04.121Z,31.60
2022-08-04T08:50:15.442Z,32.30
2022-08-04T08:55:30.992Z,32.80
2022-08-04T09:01:00.121Z,32.90
2022-08-04T09:06:17.520Z,33.00
2022-08-04T09:11:28.717Z,33.40
2022-08-04T09:16:39.906Z,33.50
2022-08-04T09:22:00.411Z,33.70
2022-08-04T09:27:08.765Z,33.80
2022-08-04T09:32:17.608Z,33.10
2022-08-04T09:37:46.084Z,33.60
2022-08-04T09:43:04.619Z,33.70
2022-08-04T09:48:31.350Z,34.20
2022-08-04T09:53:51.580Z,33.80
2022-08-04T09:59:21.166Z,34.30
2022-08-04T10:04:29.699Z,33.40
2022-08-04T10:09:47.076Z,33.30
2022-08-04T10:15:16.112Z,33.60
2022-08-04T10:20:44.561Z,34.00
2022-08-04T10:26:10.618Z,34.10
2022-08-04T10:31:19.208Z,34.50
2022-08-04T10:36:31.119Z,34.80
2022-08-04T10:41:51.477Z,34.20
2022-08-04T10:47:05.727Z,34.30
2022-08-04T10:52:14.256Z,34.50
2022-08-04T10:57:37.226Z,34.40
2022-08-04T11:02:58.216Z,34.90
2022-08-04T11:08:14.343Z,35.50
2022-08-04T11:13:30.080Z,35.30
2022-08-04T11:18:41.617Z,35.00
2022-08-04T11:23:59.133Z,35.20
2022-08-04T11:29:22.185Z,35.80
2022-08-04T11:34:29.021Z,35.70
2022-08-04T11:39:46.112Z,35.40
2022-08-04T11:45:05.293Z,35.10
2022-08-04T11:50:22.635Z,35.30
2022-08-04T11:55:33.220Z,34.80
2022-08-04T12:00:46.962Z,35.00
2022-08-04T12:06:11.568Z,34.40
2022-08-04T12:11:34.206Z,34.50
2022-08-04T12:17:16.516Z,34.50
2022-08-04T12:22:31.351Z,35.00
2022-08-04T12:27:56.184Z,35.00
2022-08-04T12:33:07.156Z,34.70
2022-08-04T12:38:16.019Z,34.90
2022-08-04T12:43:38.045Z,34.10
2022-08-04T12:48:46.479Z,34.40
2022-08-04T12:53:56.587Z,34.50
2022-08-04T12:59:12.474Z,34.80
2022-08-04T13:04:28.831Z,34.50
2022-08-04T13:09:34.734Z,34.60
2022-08-04T13:14:44.306Z,34.50
2022-08-04T13:19:53.079Z,34.00
2022-08-04T13:25:18.267Z,34.00
2022-08-04T13:30:10.429Z,34.20
2022-08-04T13:35:17.392Z,34.10
2022-08-04T13:40:25.686Z,33.60
2022-08-04T13:45:34.882Z,33.90
2022-08-04T13:50:48.686Z,33.80
2022-08-04T13:56:00.433Z,33.60
2022-08-04T14:01:14.017Z,33.60
2022-08-04T14:06:25.738Z,33.90
2022-08-04T14:12:09.085Z,33.90
2022-08-04T14:17:07.526Z,33.60
2022-08-04T14:22:35.411Z,33.30
2022-08-04T14:27:58.697Z,33.30
2022-08-04T14:34:03.126Z,33.20
2022-08-04T14:38:16.989Z,32.90
2022-08-04T14:43:22.757Z,32.90
2022-08-04T14:48:28.489Z,32.80
2022-08-04T14:53:40.039Z,32.80
2022-08-04T14:58:46.671Z,32.80
2022-08-04T15:03:53.234Z,32.80
2022-08-04T15:09:03.074Z,32.50
2022-08-04T15:14:09.409Z,32.40
2022-08-04T15:19:18.936Z,32.10
2022-08-04T15:24:26.372Z,32.10
2022-08-04T15:30:00.416Z,32.10
2022-08-04T15:34:54.607Z,32.10
2022-08-04T15:40:08.837Z,32.00
2022-08-04T15:45:20.945Z,31.80
2022-08-04T15:50:28.502Z,31.60
2022-08-04T15:55:39.069Z,31.60
2022-08-04T16:00:55.120Z,31.50
2022-08-04T16:06:02.123Z,31.50
2022-08-04T16:11:30.999Z,31.40
2022-08-04T16:16:49.695Z,31.40
2022-08-04T16:22:00.123Z,31.10
2022-08-04T16:27:14.839Z,31.00
2022-08-04T16:32:23.821Z,30.80
2022-08-04T16:37:40.809Z,30.80
2022-08-04T16:42:47.152Z,30.70
2022-08-04T16:47:55.441Z,30.40
2022-08-04T16:53:02.175Z,30.30
2022-08-04T16:58:07.750Z,30.10
2022-08-04T17:03:13.733Z,29.90
2022-08-04T17:08:29.477Z,29.80
2022-08-04T17:14:02.708Z,29.60
2022-08-04T17:18:44.860Z,29.40
2022-08-04T17:24:12.743Z,29.30
2022-08-04T17:29:04.569Z,29.10
2022-08-04T17:34:15.825Z,29.00
2022-08-04T17:39:25.799Z,28.90
2022-08-04T17:44:38.525Z,28.90
2022-08-04T17:49:52.534Z,28.80
2022-08-04T17:54:54.080Z,28.60
2022-08-04T18:00:01.276Z,28.50
2022-08-04T18:05:11.831Z,28.30
2022-08-04T18:10:30.899Z,28.10
2022-08-04T18:15:30.007Z,27.90
2022-08-04T18:20:37.571Z,27.80
2022-08-04T18:25:51.717Z,27.60
2022-08-04T18:30:56.240Z,27.50
2022-08-04T18:36:34.313Z,27.30
2022-08-04T18:41:09.902Z,27.20
2022-08-04T18:46:16.501Z,27.00
2022-08-04T18:51:25.247Z,26.80
2022-08-04T18:56:32.498Z,26.60
2022-08-04T19:02:09.294Z,26.40
2022-08-04T19:06:46.507Z,26.30
2022-08-04T19:11:54.468Z,26.20
2022-08-04T19:16:59.060Z,26.20
2022-08-04T19:22:08.087Z,26.10
2022-08-04T19:27:13.384Z,26.10
2022-08-04T19:32:20.456Z,25.90
2022-08-04T19:37:57.032Z,25.80
2022-08-04T19:42:34.859Z,25.70
2022-08-04T19:48:16.268Z,25.60
2022-08-04T19:52:52.099Z,25.60
2022-08-04T19:57:54.973Z,25.40
2022-08-04T20:03:00.331Z,25.40
2022-08-04T20:08:05.922Z,25.20
2022-08-04T20:13:12.453Z,25.10
2022-08-04T20:18:35.515Z,24.90
2022-08-04T20:23:47.923Z,24.70
2022-08-04T20:28:36.711Z,24.60
2022-08-04T20:33:42.211Z,24.50
2022-08-04T20:38:53.095Z,24.40
2022-08-04T20:43:57.756Z,24.20
2022-08-04T20:49:03.200Z,24.00
2022-08-04T20:54:16.864Z,24.00
2022-08-04T20:59:17.137Z,23.80
2022-08-04T21:04:32.103Z,23.70
2022-08-04T21:09:50.112Z,23.70
2022-08-04T21:14:46.854Z,23.70
2022-08-04T21:19:53.629Z,23.60
2022-08-04T21:24:59.154Z,23.50
2022-08-04T21:30:10.421Z,23.50
2022-08-04T21:35:16.169Z,23.40
2022-08-04T21:40:32.530Z,23.30
2022-08-04T21:45:36.403Z,23.20
2022-08-04T21:50:35.210Z,23.10
2022-08-04T21:56:05.598Z,23.10
2022-08-04T22:00:48.986Z,23.00
2022-08-04T22:05:55.806Z,23.00
2022-08-04T22:11:01.498Z,23.00
2022-08-04T22:16:07.120Z,22.90
2022-08-04T22:21:12.680Z,22.90
2022-08-04T22:26:27.003Z,22.80
2022-08-04T22:31:27.810Z,22.70
2022-08-04T22:36:34.833Z,22.70
2022-08-04T22:41:48.939Z,22.70
2022-08-04T22:46:49.931Z,22.70
2022-08-04T22:51:55.390Z,22.60
2022-08-04T22:57:02.791Z,22.60
2022-08-04T23:02:09.107Z,22.60
2022-08-04T23:07:23.883Z,22.60
2022-08-04T23:12:25.614Z,22.60
2022-08-04T23:17:32.918Z,22.50
2022-08-04T23:22:41.386Z,22.40
2022-08-04T23:27:48.142Z,22.40
2022-08-04T23:32:55.207Z,22.30
2022-08-04T23:38:31.697Z,22.20
2022-08-04T23:43:12.390Z,22.20
2022-08-04T23:48:20.895Z,22.10
2022-08-04T23:53:22.641Z,22.00
2022-08-04T23:58:28.699Z,22.00
